sensor_id;sensor_type;location;lat;lon;timestamp;pressure;altitude;pressure_sealevel;temperature;humidity
49827;BME280;35715;51.570;6.036;2023-04-26T00:00:53;101805.34;;;5.96;67.20
49827;BME280;35715;51.570;6.036;2023-04-26T00:03:19;101801.75;;;5.94;67.38
49827;BME280;35715;51.570;6.036;2023-04-26T00:05:44;101797.34;;;5.93;67.69
49827;BME280;35715;51.570;6.036;2023-04-26T00:08:14;101796.78;;;5.95;68.15
49827;BME280;35715;51.570;6.036;2023-04-26T00:10:39;101805.69;;;5.99;67.76
49827;BME280;35715;51.570;6.036;2023-04-26T00:13:05;101803.13;;;5.99;67.55
49827;BME280;35715;51.570;6.036;2023-04-26T00:15:32;101803.13;;;5.99;67.76
49827;BME280;35715;51.570;6.036;2023-04-26T00:17:58;101810.31;;;5.94;67.85
49827;BME280;35715;51.570;6.036;2023-04-26T00:20:23;101801.28;;;5.89;67.73
49827;BME280;35715;51.570;6.036;2023-04-26T00:22:48;101801.84;;;5.86;67.88
49827;BME280;35715;51.570;6.036;2023-04-26T00:25:14;101802.13;;;5.81;68.32
49827;BME280;35715;51.570;6.036;2023-04-26T00:27:44;101801.81;;;5.78;68.19
49827;BME280;35715;51.570;6.036;2023-04-26T00:30:10;101804.22;;;5.76;68.48
49827;BME280;35715;51.570;6.036;2023-04-26T00:32:35;101803.91;;;5.73;68.03
49827;BME280;35715;51.570;6.036;2023-04-26T00:35:02;101801.03;;;5.70;68.50
49827;BME280;35715;51.570;6.036;2023-04-26T00:37:27;101806.44;;;5.64;68.47
49827;BME280;35715;51.570;6.036;2023-04-26T00:39:54;101795.25;;;5.55;68.64
49827;BME280;35715;51.570;6.036;2023-04-26T00:42:21;101803.19;;;5.49;68.65
49827;BME280;35715;51.570;6.036;2023-04-26T00:44:46;101800.00;;;5.43;68.61
49827;BME280;35715;51.570;6.036;2023-04-26T00:47:11;101806.47;;;5.40;68.64
49827;BME280;35715;51.570;6.036;2023-04-26T00:49:42;101803.59;;;5.37;68.91
49827;BME280;35715;51.570;6.036;2023-04-26T00:52:08;101794.09;;;5.36;68.98
49827;BME280;35715;51.570;6.036;2023-04-26T00:54:33;101800.72;;;5.33;68.70
49827;BME280;35715;51.570;6.036;2023-04-26T00:57:02;101794.53;;;5.31;69.36
49827;BME280;35715;51.570;6.036;2023-04-26T00:59:27;101805.66;;;5.32;69.19
49827;BME280;35715;51.570;6.036;2023-04-26T01:01:53;101798.56;;;5.29;69.53
49827;BME280;35715;51.570;6.036;2023-04-26T01:04:18;101801.13;;;5.29;69.42
49827;BME280;35715;51.570;6.036;2023-04-26T01:06:43;101798.41;;;5.28;69.47
49827;BME280;35715;51.570;6.036;2023-04-26T01:09:14;101798.84;;;5.24;69.33
49827;BME280;35715;51.570;6.036;2023-04-26T01:11:39;101804.72;;;5.23;69.66
49827;BME280;35715;51.570;6.036;2023-04-26T01:14:06;101793.41;;;5.21;69.40
49827;BME280;35715;51.570;6.036;2023-04-26T01:16:32;101795.63;;;5.18;69.35
49827;BME280;35715;51.570;6.036;2023-04-26T01:19:09;101800.59;;;5.16;69.93
49827;BME280;35715;51.570;6.036;2023-04-26T01:21:36;101807.38;;;5.15;69.90
49827;BME280;35715;51.570;6.036;2023-04-26T01:24:02;101799.38;;;5.12;69.76
49827;BME280;35715;51.570;6.036;2023-04-26T01:26:27;101810.94;;;5.09;70.00
49827;BME280;35715;51.570;6.036;2023-04-26T01:28:53;101799.63;;;5.07;69.93
49827;BME280;35715;51.570;6.036;2023-04-26T01:31:18;101808.06;;;5.06;70.21
49827;BME280;35715;51.570;6.036;2023-04-26T01:33:43;101801.88;;;5.04;70.06
49827;BME280;35715;51.570;6.036;2023-04-26T01:36:08;101808.50;;;5.02;70.16
49827;BME280;35715;51.570;6.036;2023-04-26T01:38:37;101803.94;;;4.99;69.98
49827;BME280;35715;51.570;6.036;2023-04-26T01:41:02;101804.53;;;4.96;70.21
49827;BME280;35715;51.570;6.036;2023-04-26T01:43:27;101800.25;;;4.88;69.59
49827;BME280;35715;51.570;6.036;2023-04-26T01:45:53;101817.50;;;4.82;70.04
49827;BME280;35715;51.570;6.036;2023-04-26T01:50:47;101812.00;;;4.70;70.57
49827;BME280;35715;51.570;6.036;2023-04-26T01:53:12;101808.72;;;4.71;70.49
49827;BME280;35715;51.570;6.036;2023-04-26T01:55:38;101810.34;;;4.71;70.53
49827;BME280;35715;51.570;6.036;2023-04-26T01:58:05;101813.50;;;4.68;70.85
49827;BME280;35715;51.570;6.036;2023-04-26T02:00:30;101808.06;;;4.65;70.69
49827;BME280;35715;51.570;6.036;2023-04-26T02:02:56;101811.34;;;4.64;70.92
49827;BME280;35715;51.570;6.036;2023-04-26T02:05:21;101805.91;;;4.61;70.99
49827;BME280;35715;51.570;6.036;2023-04-26T02:08:01;101802.13;;;4.57;71.56
49827;BME280;35715;51.570;6.036;2023-04-26T02:10:26;101806.31;;;4.57;71.81
49827;BME280;35715;51.570;6.036;2023-04-26T02:12:51;101813.25;;;4.58;71.69
49827;BME280;35715;51.570;6.036;2023-04-26T02:15:18;101806.63;;;4.60;72.04
49827;BME280;35715;51.570;6.036;2023-04-26T02:17:45;101799.56;;;4.57;71.85
49827;BME280;35715;51.570;6.036;2023-04-26T02:20:13;101794.63;;;4.59;71.96
49827;BME280;35715;51.570;6.036;2023-04-26T02:22:39;101795.34;;;4.58;71.94
49827;BME280;35715;51.570;6.036;2023-04-26T02:25:04;101800.13;;;4.55;71.56
49827;BME280;35715;51.570;6.036;2023-04-26T02:27:29;101806.75;;;4.53;71.95
49827;BME280;35715;51.570;6.036;2023-04-26T02:32:27;101813.16;;;4.49;71.97
49827;BME280;35715;51.570;6.036;2023-04-26T02:34:52;101815.56;;;4.48;71.83
49827;BME280;35715;51.570;6.036;2023-04-26T02:37:18;101809.38;;;4.46;71.74
49827;BME280;35715;51.570;6.036;2023-04-26T02:39:48;101808.44;;;4.45;71.87
49827;BME280;35715;51.570;6.036;2023-04-26T02:42:13;101807.38;;;4.43;72.32
49827;BME280;35715;51.570;6.036;2023-04-26T02:44:40;101803.63;;;4.39;72.21
49827;BME280;35715;51.570;6.036;2023-04-26T02:47:11;101807.78;;;4.39;72.27
49827;BME280;35715;51.570;6.036;2023-04-26T02:49:37;101796.69;;;4.38;72.45
49827;BME280;35715;51.570;6.036;2023-04-26T02:52:02;101800.41;;;4.33;72.36
49827;BME280;35715;51.570;6.036;2023-04-26T02:54:29;101812.84;;;4.30;72.41
49827;BME280;35715;51.570;6.036;2023-04-26T02:57:02;101803.53;;;4.31;73.01
49827;BME280;35715;51.570;6.036;2023-04-26T02:59:39;101801.53;;;4.28;72.92
49827;BME280;35715;51.570;6.036;2023-04-26T03:02:04;101791.63;;;4.31;73.34
49827;BME280;35715;51.570;6.036;2023-04-26T03:04:33;101791.31;;;4.28;72.71
49827;BME280;35715;51.570;6.036;2023-04-26T03:07:00;101797.03;;;4.25;72.93
49827;BME280;35715;51.570;6.036;2023-04-26T03:09:27;101801.81;;;4.22;72.77
49827;BME280;35715;51.570;6.036;2023-04-26T03:11:52;101796.31;;;4.19;72.96
49827;BME280;35715;51.570;6.036;2023-04-26T03:14:17;101801.28;;;4.18;73.10
49827;BME280;35715;51.570;6.036;2023-04-26T03:16:43;101802.38;;;4.20;73.72
49827;BME280;35715;51.570;6.036;2023-04-26T03:19:12;101795.75;;;4.22;73.77
49827;BME280;35715;51.570;6.036;2023-04-26T03:21:37;101790.09;;;4.24;73.92
49827;BME280;35715;51.570;6.036;2023-04-26T03:24:02;101789.91;;;4.23;73.66
49827;BME280;35715;51.570;6.036;2023-04-26T03:26:27;101792.16;;;4.20;73.09
49827;BME280;35715;51.570;6.036;2023-04-26T03:28:59;101790.88;;;4.16;73.24
49827;BME280;35715;51.570;6.036;2023-04-26T03:31:24;101782.00;;;4.13;73.57
49827;BME280;35715;51.570;6.036;2023-04-26T03:33:56;101785.28;;;4.12;73.53
49827;BME280;35715;51.570;6.036;2023-04-26T03:36:25;101782.06;;;4.05;73.10
49827;BME280;35715;51.570;6.036;2023-04-26T03:38:53;101780.66;;;4.00;73.23
49827;BME280;35715;51.570;6.036;2023-04-26T03:41:18;101779.28;;;3.95;72.92
49827;BME280;35715;51.570;6.036;2023-04-26T03:43:44;101773.63;;;3.90;73.22
49827;BME280;35715;51.570;6.036;2023-04-26T03:46:09;101781.72;;;3.86;73.37
49827;BME280;35715;51.570;6.036;2023-04-26T03:48:35;101780.78;;;3.86;74.08
49827;BME280;35715;51.570;6.036;2023-04-26T03:51:01;101780.06;;;3.87;74.42
49827;BME280;35715;51.570;6.036;2023-04-26T03:53:26;101774.97;;;3.87;74.03
49827;BME280;35715;51.570;6.036;2023-04-26T03:55:52;101774.06;;;3.86;74.29
49827;BME280;35715;51.570;6.036;2023-04-26T03:58:23;101777.34;;;3.85;74.11
49827;BME280;35715;51.570;6.036;2023-04-26T04:00:50;101774.47;;;3.82;74.04
49827;BME280;35715;51.570;6.036;2023-04-26T04:03:16;101778.34;;;3.79;74.01
49827;BME280;35715;51.570;6.036;2023-04-26T04:05:41;101778.91;;;3.76;74.14
49827;BME280;35715;51.570;6.036;2023-04-26T04:08:13;101775.28;;;3.74;74.26
49827;BME280;35715;51.570;6.036;2023-04-26T04:10:39;101776.91;;;3.73;74.16
49827;BME280;35715;51.570;6.036;2023-04-26T04:13:06;101774.53;;;3.75;74.43
49827;BME280;35715;51.570;6.036;2023-04-26T04:15:33;101778.56;;;3.73;74.54
49827;BME280;35715;51.570;6.036;2023-04-26T04:17:59;101782.78;;;3.72;74.50
49827;BME280;35715;51.570;6.036;2023-04-26T04:20:24;101783.50;;;3.71;74.88
49827;BME280;35715;51.570;6.036;2023-04-26T04:22:50;101782.59;;;3.71;75.33
49827;BME280;35715;51.570;6.036;2023-04-26T04:25:15;101781.50;;;3.69;75.37
49827;BME280;35715;51.570;6.036;2023-04-26T04:27:40;101781.34;;;3.67;75.26
49827;BME280;35715;51.570;6.036;2023-04-26T04:30:09;101775.50;;;3.68;75.52
49827;BME280;35715;51.570;6.036;2023-04-26T04:32:35;101788.09;;;3.67;76.15
49827;BME280;35715;51.570;6.036;2023-04-26T04:35:01;101778.22;;;3.70;75.81
49827;BME280;35715;51.570;6.036;2023-04-26T04:37:34;101784.41;;;3.72;75.89
49827;BME280;35715;51.570;6.036;2023-04-26T04:40:00;101787.44;;;3.77;75.57
49827;BME280;35715;51.570;6.036;2023-04-26T04:42:25;101784.34;;;3.79;75.60
49827;BME280;35715;51.570;6.036;2023-04-26T04:50:13;101797.44;;;3.82;75.95
49827;BME280;35715;51.570;6.036;2023-04-26T04:52:39;101796.88;;;3.85;76.14
49827;BME280;35715;51.570;6.036;2023-04-26T04:55:05;101798.28;;;3.90;76.50
49827;BME280;35715;51.570;6.036;2023-04-26T04:57:30;101805.88;;;3.97;76.30
49827;BME280;35715;51.570;6.036;2023-04-26T05:02:32;101804.59;;;4.17;76.57
49827;BME280;35715;51.570;6.036;2023-04-26T05:04:57;101804.34;;;4.22;76.61
49827;BME280;35715;51.570;6.036;2023-04-26T05:07:32;101802.13;;;4.25;76.13
49827;BME280;35715;51.570;6.036;2023-04-26T05:09:58;101804.09;;;4.28;76.28
49827;BME280;35715;51.570;6.036;2023-04-26T05:12:40;101813.91;;;4.32;76.04
49827;BME280;35715;51.570;6.036;2023-04-26T05:15:08;101809.13;;;4.35;76.32
49827;BME280;35715;51.570;6.036;2023-04-26T05:17:40;101813.34;;;4.35;75.95
49827;BME280;35715;51.570;6.036;2023-04-26T05:20:09;101810.19;;;4.37;76.20
49827;BME280;35715;51.570;6.036;2023-04-26T05:22:35;101819.09;;;4.41;76.02
49827;BME280;35715;51.570;6.036;2023-04-26T05:25:01;101827.09;;;4.44;76.10
49827;BME280;35715;51.570;6.036;2023-04-26T05:27:29;101815.72;;;4.49;76.38
49827;BME280;35715;51.570;6.036;2023-04-26T05:30:01;101827.69;;;4.57;76.47
49827;BME280;35715;51.570;6.036;2023-04-26T05:32:30;101824.63;;;4.69;76.74
49827;BME280;35715;51.570;6.036;2023-04-26T05:35:30;101824.13;;;4.80;76.75
49827;BME280;35715;51.570;6.036;2023-04-26T05:43:02;101833.75;;;5.23;76.67
49827;BME280;35715;51.570;6.036;2023-04-26T05:45:27;101835.50;;;5.40;76.36
49827;BME280;35715;51.570;6.036;2023-04-26T05:47:53;101841.31;;;5.55;76.36
49827;BME280;35715;51.570;6.036;2023-04-26T05:50:23;101841.59;;;5.74;75.75
49827;BME280;35715;51.570;6.036;2023-04-26T05:52:51;101839.34;;;5.77;75.72
49827;BME280;35715;51.570;6.036;2023-04-26T05:55:16;101843.56;;;5.85;75.52
49827;BME280;35715;51.570;6.036;2023-04-26T05:57:41;101844.66;;;5.96;75.91
49827;BME280;35715;51.570;6.036;2023-04-26T06:00:07;101836.31;;;6.06;75.70
49827;BME280;35715;51.570;6.036;2023-04-26T06:02:36;101838.59;;;6.20;75.60
49827;BME280;35715;51.570;6.036;2023-04-26T06:05:02;101836.97;;;6.30;74.67
49827;BME280;35715;51.570;6.036;2023-04-26T06:07:37;101837.31;;;6.33;74.77
49827;BME280;35715;51.570;6.036;2023-04-26T06:10:11;101838.63;;;6.29;74.34
49827;BME280;35715;51.570;6.036;2023-04-26T06:12:43;101846.47;;;6.31;74.61
49827;BME280;35715;51.570;6.036;2023-04-26T06:15:12;101845.00;;;6.33;74.56
49827;BME280;35715;51.570;6.036;2023-04-26T06:17:42;101846.63;;;6.32;74.14
49827;BME280;35715;51.570;6.036;2023-04-26T06:20:17;101847.56;;;6.33;74.52
49827;BME280;35715;51.570;6.036;2023-04-26T06:22:42;101846.63;;;6.32;74.28
49827;BME280;35715;51.570;6.036;2023-04-26T06:25:07;101850.88;;;6.32;74.18
49827;BME280;35715;51.570;6.036;2023-04-26T06:27:33;101856.16;;;6.42;74.68
49827;BME280;35715;51.570;6.036;2023-04-26T06:29:58;101847.72;;;6.52;74.13
49827;BME280;35715;51.570;6.036;2023-04-26T06:32:23;101844.75;;;6.65;74.15
49827;BME280;35715;51.570;6.036;2023-04-26T06:34:49;101847.00;;;6.88;74.26
49827;BME280;35715;51.570;6.036;2023-04-26T06:37:14;101840.63;;;7.37;74.62
49827;BME280;35715;51.570;6.036;2023-04-26T06:39:42;101833.75;;;8.00;72.21
49827;BME280;35715;51.570;6.036;2023-04-26T06:42:10;101834.47;;;8.63;70.45
49827;BME280;35715;51.570;6.036;2023-04-26T06:44:35;101832.03;;;9.32;68.43
49827;BME280;35715;51.570;6.036;2023-04-26T06:47:01;101829.78;;;9.95;67.51
49827;BME280;35715;51.570;6.036;2023-04-26T06:49:39;101838.38;;;10.56;65.56
49827;BME280;35715;51.570;6.036;2023-04-26T06:52:05;101832.88;;;11.05;63.62
49827;BME280;35715;51.570;6.036;2023-04-26T06:54:31;101838.16;;;11.06;62.37
49827;BME280;35715;51.570;6.036;2023-04-26T06:56:57;101839.72;;;11.14;60.29
49827;BME280;35715;51.570;6.036;2023-04-26T07:02:00;101835.34;;;10.93;60.33
49827;BME280;35715;51.570;6.036;2023-04-26T07:04:26;101851.41;;;10.78;61.46
49827;BME280;35715;51.570;6.036;2023-04-26T07:06:52;101852.06;;;10.55;61.45
49827;BME280;35715;51.570;6.036;2023-04-26T07:09:18;101851.94;;;10.54;62.57
49827;BME280;35715;51.570;6.036;2023-04-26T07:11:44;101855.13;;;10.72;62.90
49827;BME280;35715;51.570;6.036;2023-04-26T07:14:09;101857.94;;;10.95;62.33
49827;BME280;35715;51.570;6.036;2023-04-26T07:16:41;101850.56;;;11.10;61.41
49827;BME280;35715;51.570;6.036;2023-04-26T07:19:09;101847.97;;;11.21;61.86
49827;BME280;35715;51.570;6.036;2023-04-26T07:21:35;101850.69;;;11.44;61.59
49827;BME280;35715;51.570;6.036;2023-04-26T07:24:02;101847.44;;;11.57;60.86
49827;BME280;35715;51.570;6.036;2023-04-26T07:26:28;101850.53;;;11.53;60.39
49827;BME280;35715;51.570;6.036;2023-04-26T07:28:53;101848.69;;;11.30;59.02
49827;BME280;35715;51.570;6.036;2023-04-26T07:31:32;101848.34;;;11.15;59.49
49827;BME280;35715;51.570;6.036;2023-04-26T07:33:57;101841.50;;;11.15;60.41
49827;BME280;35715;51.570;6.036;2023-04-26T07:36:23;101843.81;;;11.23;59.21
49827;BME280;35715;51.570;6.036;2023-04-26T07:41:37;101846.69;;;11.48;58.40
49827;BME280;35715;51.570;6.036;2023-04-26T07:44:35;101843.16;;;11.58;57.72
49827;BME280;35715;51.570;6.036;2023-04-26T07:47:04;101845.03;;;11.70;57.20
49827;BME280;35715;51.570;6.036;2023-04-26T07:51:59;101834.81;;;11.72;57.45
49827;BME280;35715;51.570;6.036;2023-04-26T07:54:26;101842.88;;;11.65;56.76
49827;BME280;35715;51.570;6.036;2023-04-26T07:56:51;101836.56;;;11.61;55.78
49827;BME280;35715;51.570;6.036;2023-04-26T07:59:19;101834.06;;;11.95;55.27
49827;BME280;35715;51.570;6.036;2023-04-26T08:01:44;101837.75;;;12.67;53.73
49827;BME280;35715;51.570;6.036;2023-04-26T08:04:09;101840.28;;;13.12;52.74
49827;BME280;35715;51.570;6.036;2023-04-26T08:06:34;101841.53;;;13.18;50.33
49827;BME280;35715;51.570;6.036;2023-04-26T08:09:00;101833.50;;;12.91;48.79
49827;BME280;35715;51.570;6.036;2023-04-26T08:11:25;101837.81;;;13.02;52.47
49827;BME280;35715;51.570;6.036;2023-04-26T08:13:50;101841.63;;;13.31;52.05
49827;BME280;35715;51.570;6.036;2023-04-26T08:16:16;101841.91;;;13.34;51.07
49827;BME280;35715;51.570;6.036;2023-04-26T08:18:59;101838.69;;;13.50;49.93
49827;BME280;35715;51.570;6.036;2023-04-26T08:21:27;101847.66;;;13.79;49.82
49827;BME280;35715;51.570;6.036;2023-04-26T08:23:52;101842.94;;;13.73;48.87
49827;BME280;35715;51.570;6.036;2023-04-26T08:26:17;101843.09;;;13.16;48.32
49827;BME280;35715;51.570;6.036;2023-04-26T08:28:44;101851.75;;;12.81;50.78
49827;BME280;35715;51.570;6.036;2023-04-26T08:31:09;101861.44;;;12.37;50.02
49827;BME280;35715;51.570;6.036;2023-04-26T08:33:34;101856.53;;;12.18;51.21
49827;BME280;35715;51.570;6.036;2023-04-26T08:35:59;101864.88;;;12.26;51.04
49827;BME280;35715;51.570;6.036;2023-04-26T08:40:54;101852.69;;;12.93;49.85
49827;BME280;35715;51.570;6.036;2023-04-26T08:43:21;101858.28;;;13.11;47.75
49827;BME280;35715;51.570;6.036;2023-04-26T08:45:47;101862.91;;;12.80;48.81
49827;BME280;35715;51.570;6.036;2023-04-26T08:48:12;101854.38;;;12.47;49.01
49827;BME280;35715;51.570;6.036;2023-04-26T08:50:42;101855.88;;;12.21;49.42
49827;BME280;35715;51.570;6.036;2023-04-26T08:53:09;101854.13;;;12.10;49.81
49827;BME280;35715;51.570;6.036;2023-04-26T08:55:37;101854.81;;;12.07;50.00
49827;BME280;35715;51.570;6.036;2023-04-26T08:58:11;101854.78;;;12.29;49.52
49827;BME280;35715;51.570;6.036;2023-04-26T09:00:37;101852.28;;;13.83;46.87
49827;BME280;35715;51.570;6.036;2023-04-26T09:03:02;101834.97;;;15.24;46.26
49827;BME280;35715;51.570;6.036;2023-04-26T09:05:28;101845.63;;;15.56;43.51
49827;BME280;35715;51.570;6.036;2023-04-26T09:08:01;101841.94;;;15.52;42.20
49827;BME280;35715;51.570;6.036;2023-04-26T09:10:27;101835.91;;;15.67;42.62
49827;BME280;35715;51.570;6.036;2023-04-26T09:12:54;101835.88;;;15.38;42.36
49827;BME280;35715;51.570;6.036;2023-04-26T09:15:21;101833.66;;;14.91;42.20
49827;BME280;35715;51.570;6.036;2023-04-26T09:20:21;101839.38;;;13.96;44.19
49827;BME280;35715;51.570;6.036;2023-04-26T09:22:47;101848.59;;;13.68;46.17
49827;BME280;35715;51.570;6.036;2023-04-26T09:25:14;101843.00;;;13.38;46.43
49827;BME280;35715;51.570;6.036;2023-04-26T09:27:47;101836.78;;;13.12;43.98
49827;BME280;35715;51.570;6.036;2023-04-26T09:30:16;101836.66;;;12.99;44.86
49827;BME280;35715;51.570;6.036;2023-04-26T09:32:46;101837.13;;;12.81;45.13
49827;BME280;35715;51.570;6.036;2023-04-26T09:35:31;101833.63;;;12.69;46.14
49827;BME280;35715;51.570;6.036;2023-04-26T09:37:58;101839.03;;;12.72;47.44
49827;BME280;35715;51.570;6.036;2023-04-26T09:40:24;101842.06;;;12.78;47.43
49827;BME280;35715;51.570;6.036;2023-04-26T09:42:56;101838.34;;;12.86;47.77
49827;BME280;35715;51.570;6.036;2023-04-26T09:45:23;101836.66;;;12.99;47.77
49827;BME280;35715;51.570;6.036;2023-04-26T09:47:49;101830.59;;;13.10;47.30
49827;BME280;35715;51.570;6.036;2023-04-26T09:50:25;101830.59;;;13.10;47.26
49827;BME280;35715;51.570;6.036;2023-04-26T09:52:51;101838.91;;;12.94;47.37
49827;BME280;35715;51.570;6.036;2023-04-26T09:55:26;101832.84;;;12.82;47.32
49827;BME280;35715;51.570;6.036;2023-04-26T09:57:57;101831.59;;;12.88;48.16
49827;BME280;35715;51.570;6.036;2023-04-26T10:00:25;101829.47;;;12.83;46.19
49827;BME280;35715;51.570;6.036;2023-04-26T10:02:51;101829.03;;;13.36;48.00
49827;BME280;35715;51.570;6.036;2023-04-26T10:05:16;101830.53;;;14.70;44.23
49827;BME280;35715;51.570;6.036;2023-04-26T10:07:43;101830.00;;;15.83;40.69
49827;BME280;35715;51.570;6.036;2023-04-26T10:10:09;101818.66;;;16.10;35.69
49827;BME280;35715;51.570;6.036;2023-04-26T10:12:35;101821.50;;;17.03;38.73
49827;BME280;35715;51.570;6.036;2023-04-26T10:15:02;101822.00;;;16.96;36.87
49827;BME280;35715;51.570;6.036;2023-04-26T10:17:27;101824.25;;;16.90;37.79
49827;BME280;35715;51.570;6.036;2023-04-26T10:19:55;101816.63;;;16.35;38.06
49827;BME280;35715;51.570;6.036;2023-04-26T10:22:22;101824.97;;;15.86;40.06
49827;BME280;35715;51.570;6.036;2023-04-26T10:24:50;101820.56;;;15.43;40.56
49827;BME280;35715;51.570;6.036;2023-04-26T10:27:19;101823.16;;;15.03;40.74
49827;BME280;35715;51.570;6.036;2023-04-26T10:30:04;101826.25;;;14.45;40.97
49827;BME280;35715;51.570;6.036;2023-04-26T10:32:32;101823.88;;;14.10;41.75
49827;BME280;35715;51.570;6.036;2023-04-26T10:35:32;101829.28;;;13.76;43.10
49827;BME280;35715;51.570;6.036;2023-04-26T10:40:31;101822.34;;;13.16;43.83
49827;BME280;35715;51.570;6.036;2023-04-26T10:43:39;101818.75;;;12.90;44.64
49827;BME280;35715;51.570;6.036;2023-04-26T10:45:45;101816.81;;;12.64;43.51
49827;BME280;35715;51.570;6.036;2023-04-26T10:53:29;101815.28;;;12.66;44.85
49827;BME280;35715;51.570;6.036;2023-04-26T10:55:55;101814.59;;;12.92;44.52
49827;BME280;35715;51.570;6.036;2023-04-26T10:58:32;101818.06;;;13.40;44.55
49827;BME280;35715;51.570;6.036;2023-04-26T11:01:04;101814.53;;;14.64;43.07
49827;BME280;35715;51.570;6.036;2023-04-26T11:03:30;101798.94;;;16.29;41.85
49827;BME280;35715;51.570;6.036;2023-04-26T11:05:56;101801.38;;;17.63;38.19
49827;BME280;35715;51.570;6.036;2023-04-26T11:08:28;101790.03;;;18.29;37.10
49827;BME280;35715;51.570;6.036;2023-04-26T11:11:11;101799.88;;;18.51;34.60
49827;BME280;35715;51.570;6.036;2023-04-26T11:13:38;101790.81;;;17.45;34.01
49827;BME280;35715;51.570;6.036;2023-04-26T11:16:04;101789.63;;;17.24;36.27
49827;BME280;35715;51.570;6.036;2023-04-26T11:18:32;101796.44;;;16.75;38.84
49827;BME280;35715;51.570;6.036;2023-04-26T11:20:58;101795.28;;;16.40;35.75
49827;BME280;35715;51.570;6.036;2023-04-26T11:23:24;101796.81;;;15.52;36.49
49827;BME280;35715;51.570;6.036;2023-04-26T11:25:50;101796.66;;;15.35;39.43
49827;BME280;35715;51.570;6.036;2023-04-26T11:28:17;101794.69;;;15.18;39.50
49827;BME280;35715;51.570;6.036;2023-04-26T11:30:42;101797.47;;;14.94;40.38
49827;BME280;35715;51.570;6.036;2023-04-26T11:33:15;101796.69;;;14.95;40.54
49827;BME280;35715;51.570;6.036;2023-04-26T11:36:02;101790.88;;;14.86;39.26
49827;BME280;35715;51.570;6.036;2023-04-26T11:38:28;101788.97;;;14.70;39.10
49827;BME280;35715;51.570;6.036;2023-04-26T11:43:21;101788.47;;;14.76;40.10
49827;BME280;35715;51.570;6.036;2023-04-26T11:45:48;101788.69;;;14.79;40.04
49827;BME280;35715;51.570;6.036;2023-04-26T11:48:30;101787.91;;;14.80;39.73
49827;BME280;35715;51.570;6.036;2023-04-26T11:50:56;101782.41;;;15.02;39.97
49827;BME280;35715;51.570;6.036;2023-04-26T11:53:22;101785.09;;;14.90;38.42
49827;BME280;35715;51.570;6.036;2023-04-26T11:55:47;101774.09;;;15.07;38.97
49827;BME280;35715;51.570;6.036;2023-04-26T11:58:19;101780.09;;;14.93;38.98
49827;BME280;35715;51.570;6.036;2023-04-26T12:00:57;101776.38;;;15.03;40.74
49827;BME280;35715;51.570;6.036;2023-04-26T12:03:22;101778.69;;;14.85;39.13
49827;BME280;35715;51.570;6.036;2023-04-26T12:05:52;101772.31;;;15.06;39.58
49827;BME280;35715;51.570;6.036;2023-04-26T12:08:19;101771.75;;;15.25;39.13
49827;BME280;35715;51.570;6.036;2023-04-26T12:10:47;101775.13;;;15.38;38.91
49827;BME280;35715;51.570;6.036;2023-04-26T12:13:12;101773.94;;;15.46;39.75
49827;BME280;35715;51.570;6.036;2023-04-26T12:15:39;101769.72;;;15.76;37.31
49827;BME280;35715;51.570;6.036;2023-04-26T12:18:10;101774.84;;;15.88;38.91
49827;BME280;35715;51.570;6.036;2023-04-26T12:20:36;101771.50;;;15.91;37.74
49827;BME280;35715;51.570;6.036;2023-04-26T12:23:06;101778.50;;;15.92;37.02
49827;BME280;35715;51.570;6.036;2023-04-26T12:25:33;101783.84;;;15.80;36.54
49827;BME280;35715;51.570;6.036;2023-04-26T12:28:05;101777.66;;;15.78;37.64
49827;BME280;35715;51.570;6.036;2023-04-26T12:30:32;101788.84;;;15.77;37.99
49827;BME280;35715;51.570;6.036;2023-04-26T12:33:03;101781.06;;;16.05;39.31
49827;BME280;35715;51.570;6.036;2023-04-26T12:35:34;101782.69;;;16.18;38.39
49827;BME280;35715;51.570;6.036;2023-04-26T12:38:02;101786.47;;;16.23;37.87
49827;BME280;35715;51.570;6.036;2023-04-26T12:40:30;101790.84;;;16.24;38.12
49827;BME280;35715;51.570;6.036;2023-04-26T12:42:56;101780.34;;;16.23;37.04
49827;BME280;35715;51.570;6.036;2023-04-26T12:45:22;101777.13;;;16.27;36.18
49827;BME280;35715;51.570;6.036;2023-04-26T12:47:54;101785.13;;;16.45;36.34
49827;BME280;35715;51.570;6.036;2023-04-26T12:50:20;101783.50;;;16.47;37.46
49827;BME280;35715;51.570;6.036;2023-04-26T12:52:46;101775.69;;;16.47;37.40
49827;BME280;35715;51.570;6.036;2023-04-26T12:55:12;101775.16;;;16.53;37.26
49827;BME280;35715;51.570;6.036;2023-04-26T12:57:37;101781.81;;;16.32;37.33
49827;BME280;35715;51.570;6.036;2023-04-26T13:00:04;101782.94;;;16.23;37.72
49827;BME280;35715;51.570;6.036;2023-04-26T13:02:29;101776.56;;;16.03;36.46
49827;BME280;35715;51.570;6.036;2023-04-26T13:04:54;101773.63;;;15.83;36.93
49827;BME280;35715;51.570;6.036;2023-04-26T13:07:20;101776.69;;;15.63;37.37
49827;BME280;35715;51.570;6.036;2023-04-26T13:12:15;101771.31;;;15.88;37.77
49827;BME280;35715;51.570;6.036;2023-04-26T13:14:40;101777.63;;;15.91;37.74
49827;BME280;35715;51.570;6.036;2023-04-26T13:17:05;101765.06;;;15.99;38.00
49827;BME280;35715;51.570;6.036;2023-04-26T13:22:27;101774.47;;;15.97;37.38
49827;BME280;35715;51.570;6.036;2023-04-26T13:24:52;101772.25;;;15.75;34.98
49827;BME280;35715;51.570;6.036;2023-04-26T13:27:18;101779.84;;;15.72;37.56
49827;BME280;35715;51.570;6.036;2023-04-26T13:29:57;101783.47;;;15.60;38.15
49827;BME280;35715;51.570;6.036;2023-04-26T13:32:23;101779.84;;;15.43;37.77
49827;BME280;35715;51.570;6.036;2023-04-26T13:34:48;101785.88;;;15.29;38.66
49827;BME280;35715;51.570;6.036;2023-04-26T13:37:13;101778.00;;;15.14;38.80
49827;BME280;35715;51.570;6.036;2023-04-26T13:39:42;101775.50;;;15.16;39.00
49827;BME280;35715;51.570;6.036;2023-04-26T13:42:10;101780.19;;;15.08;38.54
49827;BME280;35715;51.570;6.036;2023-04-26T13:44:41;101776.59;;;15.06;38.75